sensor_id;sensor_type;location;lat;lon;timestamp;temperature;humidity
11055;DHT22;5580;50.106;8.702;2023-02-05T00:01:14;5.60;99.90
11055;DHT22;5580;50.106;8.702;2023-02-05T00:03:39;5.60;99.90
11055;DHT22;5580;50.106;8.702;2023-02-05T00:06:05;5.50;99.90
11055;DHT22;5580;50.106;8.702;2023-02-05T00:08:31;5.50;99.90
11055;DHT22;5580;50.106;8.702;2023-02-05T00:10:58;5.30;99.90
11055;DHT22;5580;50.106;8.702;2023-02-05T00:13:23;5.20;99.90
11055;DHT22;5580;50.106;8.702;2023-02-05T00:15:49;5.20;99.90
11055;DHT22;5580;50.106;8.702;2023-02-05T00:18:14;5.20;99.90
11055;DHT22;5580;50.106;8.702;2023-02-05T00:20:40;5.30;99.90
11055;DHT22;5580;50.106;8.702;2023-02-05T00:23:05;5.30;99.90
11055;DHT22;5580;50.106;8.702;2023-02-05T00:25:31;5.30;99.90
11055;DHT22;5580;50.106;8.702;2023-02-05T00:27:56;5.40;99.90
11055;DHT22;5580;50.106;8.702;2023-02-05T00:30:22;5.40;99.90
11055;DHT22;5580;50.106;8.702;2023-02-05T00:32:48;5.30;99.90
11055;DHT22;5580;50.106;8.702;2023-02-05T00:35:13;5.40;99.90
11055;DHT22;5580;50.106;8.702;2023-02-05T00:37:39;5.30;99.90
11055;DHT22;5580;50.106;8.702;2023-02-05T00:40:05;5.40;99.90
11055;DHT22;5580;50.106;8.702;2023-02-05T00:42:30;5.40;99.90
11055;DHT22;5580;50.106;8.702;2023-02-05T00:44:56;5.50;99.90
11055;DHT22;5580;50.106;8.702;2023-02-05T00:47:22;5.50;99.90
11055;DHT22;5580;50.106;8.702;2023-02-05T00:49:47;5.50;99.90
11055;DHT22;5580;50.106;8.702;2023-02-05T00:52:13;5.50;99.90
11055;DHT22;5580;50.106;8.702;2023-02-05T00:54:38;5.50;99.90
11055;DHT22;5580;50.106;8.702;2023-02-05T00:57:04;5.50;99.90
11055;DHT22;5580;50.106;8.702;2023-02-05T00:59:30;5.50;99.90
11055;DHT22;5580;50.106;8.702;2023-02-05T01:01:55;5.50;99.90
11055;DHT22;5580;50.106;8.702;2023-02-05T01:04:21;5.50;99.90
11055;DHT22;5580;50.106;8.702;2023-02-05T01:06:46;5.50;99.90
11055;DHT22;5580;50.106;8.702;2023-02-05T01:09:12;5.50;99.90
11055;DHT22;5580;50.106;8.702;2023-02-05T01:11:37;5.50;99.90
11055;DHT22;5580;50.106;8.702;2023-02-05T01:14:03;5.40;99.90
11055;DHT22;5580;50.106;8.702;2023-02-05T01:16:29;5.30;99.90
11055;DHT22;5580;50.106;8.702;2023-02-05T01:18:54;5.20;99.90
11055;DHT22;5580;50.106;8.702;2023-02-05T01:21:22;5.10;99.90
11055;DHT22;5580;50.106;8.702;2023-02-05T01:23:50;5.00;99.90
11055;DHT22;5580;50.106;8.702;2023-02-05T01:26:16;5.00;99.90
11055;DHT22;5580;50.106;8.702;2023-02-05T01:28:42;5.10;99.90
11055;DHT22;5580;50.106;8.702;2023-02-05T01:31:07;5.10;99.90
11055;DHT22;5580;50.106;8.702;2023-02-05T01:33:33;5.10;99.90
11055;DHT22;5580;50.106;8.702;2023-02-05T01:35:59;5.20;99.90
11055;DHT22;5580;50.106;8.702;2023-02-05T01:38:24;5.20;99.90
11055;DHT22;5580;50.106;8.702;2023-02-05T01:40:50;5.30;99.90
11055;DHT22;5580;50.106;8.702;2023-02-05T01:43:16;5.30;99.90
11055;DHT22;5580;50.106;8.702;2023-02-05T01:46:15;5.40;99.90
11055;DHT22;5580;50.106;8.702;2023-02-05T01:48:45;5.50;99.90
11055;DHT22;5580;50.106;8.702;2023-02-05T01:51:14;5.50;99.90
11055;DHT22;5580;50.106;8.702;2023-02-05T01:53:40;5.60;99.90
11055;DHT22;5580;50.106;8.702;2023-02-05T01:56:18;5.50;99.90
11055;DHT22;5580;50.106;8.702;2023-02-05T01:58:51;5.50;99.90
11055;DHT22;5580;50.106;8.702;2023-02-05T02:01:19;5.40;99.90
11055;DHT22;5580;50.106;8.702;2023-02-05T02:03:45;5.30;99.90
11055;DHT22;5580;50.106;8.702;2023-02-05T02:06:12;5.40;99.90
11055;DHT22;5580;50.106;8.702;2023-02-05T02:08:37;5.40;99.90
11055;DHT22;5580;50.106;8.702;2023-02-05T02:11:05;5.40;99.90
11055;DHT22;5580;50.106;8.702;2023-02-05T02:13:32;5.40;99.90
11055;DHT22;5580;50.106;8.702;2023-02-05T02:16:00;5.40;99.90
11055;DHT22;5580;50.106;8.702;2023-02-05T02:18:27;5.40;99.90
11055;DHT22;5580;50.106;8.702;2023-02-05T02:21:18;5.40;99.90
11055;DHT22;5580;50.106;8.702;2023-02-05T02:26:47;5.40;99.90
11055;DHT22;5580;50.106;8.702;2023-02-05T02:29:54;5.40;99.90
11055;DHT22;5580;50.106;8.702;2023-02-05T02:35:24;5.50;99.90
11055;DHT22;5580;50.106;8.702;2023-02-05T02:40:31;5.60;99.90
11055;DHT22;5580;50.106;8.702;2023-02-05T02:43:13;5.60;99.90
11055;DHT22;5580;50.106;8.702;2023-02-05T02:45:48;5.60;99.90
11055;DHT22;5580;50.106;8.702;2023-02-05T02:48:18;5.60;99.90
11055;DHT22;5580;50.106;8.702;2023-02-05T02:50:48;5.50;99.90
11055;DHT22;5580;50.106;8.702;2023-02-05T02:53:19;5.50;99.90
11055;DHT22;5580;50.106;8.702;2023-02-05T02:55:48;5.50;99.90
11055;DHT22;5580;50.106;8.702;2023-02-05T02:58:24;5.50;99.90
11055;DHT22;5580;50.106;8.702;2023-02-05T03:00:53;5.60;99.90
11055;DHT22;5580;50.106;8.702;2023-02-05T03:03:21;5.60;99.90
11055;DHT22;5580;50.106;8.702;2023-02-05T03:05:48;5.60;99.90
11055;DHT22;5580;50.106;8.702;2023-02-05T03:08:32;5.60;99.90
11055;DHT22;5580;50.106;8.702;2023-02-05T03:11:00;5.50;99.90
11055;DHT22;5580;50.106;8.702;2023-02-05T03:13:27;5.50;99.90
11055;DHT22;5580;50.106;8.702;2023-02-05T03:15:53;5.50;99.90
11055;DHT22;5580;50.106;8.702;2023-02-05T03:18:19;5.60;99.90
11055;DHT22;5580;50.106;8.702;2023-02-05T03:21:00;5.60;99.90
11055;DHT22;5580;50.106;8.702;2023-02-05T03:23:28;5.60;99.90
11055;DHT22;5580;50.106;8.702;2023-02-05T03:25:54;5.60;99.90
11055;DHT22;5580;50.106;8.702;2023-02-05T03:28:20;5.60;99.90
11055;DHT22;5580;50.106;8.702;2023-02-05T03:36:44;5.60;99.90
11055;DHT22;5580;50.106;8.702;2023-02-05T03:42:20;5.60;99.90
11055;DHT22;5580;50.106;8.702;2023-02-05T03:45:26;5.50;99.90
11055;DHT22;5580;50.106;8.702;2023-02-05T03:54:45;5.40;99.90
11055;DHT22;5580;50.106;8.702;2023-02-05T03:56:53;5.50;99.90
11055;DHT22;5580;50.106;8.702;2023-02-05T03:59:22;5.50;99.90
11055;DHT22;5580;50.106;8.702;2023-02-05T04:01:48;5.50;99.90
11055;DHT22;5580;50.106;8.702;2023-02-05T04:04:15;5.50;99.90
11055;DHT22;5580;50.106;8.702;2023-02-05T04:06:40;5.40;99.90
11055;DHT22;5580;50.106;8.702;2023-02-05T04:09:08;5.40;99.90
11055;DHT22;5580;50.106;8.702;2023-02-05T04:11:34;5.40;99.90
11055;DHT22;5580;50.106;8.702;2023-02-05T04:13:59;5.40;99.90
11055;DHT22;5580;50.106;8.702;2023-02-05T04:16:25;5.40;99.90
11055;DHT22;5580;50.106;8.702;2023-02-05T04:18:51;5.50;99.90
11055;DHT22;5580;50.106;8.702;2023-02-05T04:21:16;5.60;99.90
11055;DHT22;5580;50.106;8.702;2023-02-05T04:23:42;5.60;99.90
11055;DHT22;5580;50.106;8.702;2023-02-05T04:26:07;5.60;99.90
11055;DHT22;5580;50.106;8.702;2023-02-05T04:28:33;5.70;99.90
11055;DHT22;5580;50.106;8.702;2023-02-05T04:30:59;5.60;99.90
11055;DHT22;5580;50.106;8.702;2023-02-05T04:33:24;5.50;99.90
11055;DHT22;5580;50.106;8.702;2023-02-05T04:35:50;5.40;99.90
11055;DHT22;5580;50.106;8.702;2023-02-05T04:38:15;5.40;99.90
11055;DHT22;5580;50.106;8.702;2023-02-05T04:40:41;5.30;99.90
11055;DHT22;5580;50.106;8.702;2023-02-05T04:43:07;5.20;99.90
11055;DHT22;5580;50.106;8.702;2023-02-05T04:45:32;5.10;99.90
11055;DHT22;5580;50.106;8.702;2023-02-05T04:47:58;5.10;99.90
11055;DHT22;5580;50.106;8.702;2023-02-05T04:50:24;5.10;99.90
11055;DHT22;5580;50.106;8.702;2023-02-05T04:52:50;5.10;99.90
11055;DHT22;5580;50.106;8.702;2023-02-05T04:55:15;5.30;99.90
11055;DHT22;5580;50.106;8.702;2023-02-05T04:57:41;5.30;99.90
11055;DHT22;5580;50.106;8.702;2023-02-05T05:00:07;5.40;99.90
11055;DHT22;5580;50.106;8.702;2023-02-05T05:02:33;5.40;99.90
11055;DHT22;5580;50.106;8.702;2023-02-05T05:04:58;5.40;99.90
11055;DHT22;5580;50.106;8.702;2023-02-05T05:07:24;5.40;99.90
11055;DHT22;5580;50.106;8.702;2023-02-05T05:09:49;5.50;99.90
11055;DHT22;5580;50.106;8.702;2023-02-05T05:12:15;5.50;99.90
11055;DHT22;5580;50.106;8.702;2023-02-05T05:14:41;5.50;99.90
11055;DHT22;5580;50.106;8.702;2023-02-05T05:17:06;5.50;99.90
11055;DHT22;5580;50.106;8.702;2023-02-05T05:19:32;5.40;99.90
11055;DHT22;5580;50.106;8.702;2023-02-05T05:21:59;5.50;99.90
11055;DHT22;5580;50.106;8.702;2023-02-05T05:24:24;5.40;99.90
11055;DHT22;5580;50.106;8.702;2023-02-05T05:26:50;5.40;99.90
11055;DHT22;5580;50.106;8.702;2023-02-05T05:29:15;5.40;99.90
11055;DHT22;5580;50.106;8.702;2023-02-05T05:31:41;5.50;99.90
11055;DHT22;5580;50.106;8.702;2023-02-05T05:34:07;5.50;99.90
11055;DHT22;5580;50.106;8.702;2023-02-05T05:36:32;5.40;99.90
11055;DHT22;5580;50.106;8.702;2023-02-05T05:38:58;5.20;99.90
11055;DHT22;5580;50.106;8.702;2023-02-05T05:41:42;5.20;99.90
11055;DHT22;5580;50.106;8.702;2023-02-05T05:44:26;5.30;99.90
11055;DHT22;5580;50.106;8.702;2023-02-05T05:46:52;5.30;99.90
11055;DHT22;5580;50.106;8.702;2023-02-05T05:49:18;5.30;99.90
11055;DHT22;5580;50.106;8.702;2023-02-05T05:51:43;5.40;99.90
11055;DHT22;5580;50.106;8.702;2023-02-05T05:54:09;5.40;99.90
11055;DHT22;5580;50.106;8.702;2023-02-05T05:56:34;5.50;99.90
11055;DHT22;5580;50.106;8.702;2023-02-05T05:59:00;5.40;99.90
11055;DHT22;5580;50.106;8.702;2023-02-05T06:01:26;5.50;99.90
11055;DHT22;5580;50.106;8.702;2023-02-05T06:03:52;5.50;99.90
11055;DHT22;5580;50.106;8.702;2023-02-05T06:06:21;5.50;99.90
11055;DHT22;5580;50.106;8.702;2023-02-05T06:08:46;5.50;99.90
11055;DHT22;5580;50.106;8.702;2023-02-05T06:11:12;5.40;99.90
11055;DHT22;5580;50.106;8.702;2023-02-05T06:13:38;5.30;99.90
11055;DHT22;5580;50.106;8.702;2023-02-05T06:16:03;5.20;99.90
11055;DHT22;5580;50.106;8.702;2023-02-05T06:18:29;5.00;99.90
11055;DHT22;5580;50.106;8.702;2023-02-05T06:20:55;4.70;99.90
11055;DHT22;5580;50.106;8.702;2023-02-05T06:23:21;4.70;99.90
11055;DHT22;5580;50.106;8.702;2023-02-05T06:25:47;4.80;99.90
11055;DHT22;5580;50.106;8.702;2023-02-05T06:28:12;4.70;99.90
11055;DHT22;5580;50.106;8.702;2023-02-05T06:30:38;4.80;99.90
11055;DHT22;5580;50.106;8.702;2023-02-05T06:33:04;5.00;99.90
11055;DHT22;5580;50.106;8.702;2023-02-05T06:35:30;5.10;99.90
11055;DHT22;5580;50.106;8.702;2023-02-05T06:37:55;5.10;99.90
11055;DHT22;5580;50.106;8.702;2023-02-05T06:40:21;5.00;99.90
11055;DHT22;5580;50.106;8.702;2023-02-05T06:42:51;5.00;99.90
11055;DHT22;5580;50.106;8.702;2023-02-05T06:45:17;5.00;99.90
11055;DHT22;5580;50.106;8.702;2023-02-05T06:47:42;5.00;99.90
11055;DHT22;5580;50.106;8.702;2023-02-05T06:50:08;5.00;99.90
11055;DHT22;5580;50.106;8.702;2023-02-05T06:52:34;5.10;99.90
11055;DHT22;5580;50.106;8.702;2023-02-05T06:54:59;5.30;99.90
11055;DHT22;5580;50.106;8.702;2023-02-05T06:57:25;5.30;99.90
11055;DHT22;5580;50.106;8.702;2023-02-05T06:59:50;5.30;99.90
11055;DHT22;5580;50.106;8.702;2023-02-05T07:02:16;5.20;99.90
11055;DHT22;5580;50.106;8.702;2023-02-05T07:04:42;5.10;99.90
11055;DHT22;5580;50.106;8.702;2023-02-05T07:07:07;5.10;99.90
11055;DHT22;5580;50.106;8.702;2023-02-05T07:09:33;5.00;99.90
11055;DHT22;5580;50.106;8.702;2023-02-05T07:11:58;5.00;99.90
11055;DHT22;5580;50.106;8.702;2023-02-05T07:14:24;5.00;99.90
11055;DHT22;5580;50.106;8.702;2023-02-05T07:16:49;5.00;99.90
11055;DHT22;5580;50.106;8.702;2023-02-05T07:19:16;5.10;99.90
11055;DHT22;5580;50.106;8.702;2023-02-05T07:21:42;5.20;99.90
11055;DHT22;5580;50.106;8.702;2023-02-05T07:24:08;5.20;99.90
11055;DHT22;5580;50.106;8.702;2023-02-05T07:26:33;5.30;99.90
11055;DHT22;5580;50.106;8.702;2023-02-05T07:29:00;5.30;99.90
11055;DHT22;5580;50.106;8.702;2023-02-05T07:31:26;5.30;99.90
11055;DHT22;5580;50.106;8.702;2023-02-05T07:33:52;5.30;99.90
11055;DHT22;5580;50.106;8.702;2023-02-05T07:36:17;5.20;99.90
11055;DHT22;5580;50.106;8.702;2023-02-05T07:38:45;5.20;99.90
11055;DHT22;5580;50.106;8.702;2023-02-05T07:41:13;5.20;99.90
11055;DHT22;5580;50.106;8.702;2023-02-05T07:43:39;5.20;99.90
11055;DHT22;5580;50.106;8.702;2023-02-05T07:46:08;5.20;99.90
11055;DHT22;5580;50.106;8.702;2023-02-05T07:48:35;5.20;99.90
11055;DHT22;5580;50.106;8.702;2023-02-05T07:51:01;5.10;99.90
11055;DHT22;5580;50.106;8.702;2023-02-05T07:53:27;5.10;99.90
11055;DHT22;5580;50.106;8.702;2023-02-05T07:55:52;5.20;99.90
11055;DHT22;5580;50.106;8.702;2023-02-05T07:58:18;5.30;99.90
11055;DHT22;5580;50.106;8.702;2023-02-05T08:00:44;5.30;99.90
11055;DHT22;5580;50.106;8.702;2023-02-05T08:03:09;5.40;99.90
11055;DHT22;5580;50.106;8.702;2023-02-05T08:05:36;5.40;99.90
11055;DHT22;5580;50.106;8.702;2023-02-05T08:08:02;5.50;99.90
11055;DHT22;5580;50.106;8.702;2023-02-05T08:10:28;5.40;99.90
11055;DHT22;5580;50.106;8.702;2023-02-05T08:12:54;5.40;99.90
11055;DHT22;5580;50.106;8.702;2023-02-05T08:15:19;5.40;99.90
11055;DHT22;5580;50.106;8.702;2023-02-05T08:17:45;5.40;99.90
11055;DHT22;5580;50.106;8.702;2023-02-05T08:20:11;5.40;99.90
11055;DHT22;5580;50.106;8.702;2023-02-05T08:22:39;5.40;99.90
11055;DHT22;5580;50.106;8.702;2023-02-05T08:25:07;5.40;99.90
11055;DHT22;5580;50.106;8.702;2023-02-05T08:27:35;5.40;99.90
11055;DHT22;5580;50.106;8.702;2023-02-05T08:30:02;5.40;99.90
11055;DHT22;5580;50.106;8.702;2023-02-05T08:32:28;5.40;99.90
11055;DHT22;5580;50.106;8.702;2023-02-05T08:34:53;5.40;99.90
11055;DHT22;5580;50.106;8.702;2023-02-05T08:37:19;5.40;99.90
11055;DHT22;5580;50.106;8.702;2023-02-05T08:39:44;5.50;99.90
11055;DHT22;5580;50.106;8.702;2023-02-05T08:42:11;5.50;99.90
11055;DHT22;5580;50.106;8.702;2023-02-05T08:44:37;5.60;99.90
11055;DHT22;5580;50.106;8.702;2023-02-05T08:47:02;5.60;99.90
11055;DHT22;5580;50.106;8.702;2023-02-05T08:49:29;5.70;99.90
11055;DHT22;5580;50.106;8.702;2023-02-05T08:51:54;5.70;99.90
11055;DHT22;5580;50.106;8.702;2023-02-05T08:54:20;5.70;99.90
11055;DHT22;5580;50.106;8.702;2023-02-05T08:56:49;5.60;99.90
11055;DHT22;5580;50.106;8.702;2023-02-05T08:59:15;5.70;99.90
11055;DHT22;5580;50.106;8.702;2023-02-05T09:01:42;5.60;99.90
11055;DHT22;5580;50.106;8.702;2023-02-05T09:04:12;5.60;99.90
11055;DHT22;5580;50.106;8.702;2023-02-05T09:06:38;5.60;99.90
11055;DHT22;5580;50.106;8.702;2023-02-05T09:09:04;5.60;99.90
11055;DHT22;5580;50.106;8.702;2023-02-05T09:11:29;5.60;99.90
11055;DHT22;5580;50.106;8.702;2023-02-05T09:13:56;5.60;99.90
11055;DHT22;5580;50.106;8.702;2023-02-05T09:16:22;5.70;99.90
11055;DHT22;5580;50.106;8.702;2023-02-05T09:18:47;5.70;99.90
11055;DHT22;5580;50.106;8.702;2023-02-05T09:21:13;5.80;99.90
11055;DHT22;5580;50.106;8.702;2023-02-05T09:23:38;5.80;99.90
11055;DHT22;5580;50.106;8.702;2023-02-05T09:26:04;5.80;99.90
11055;DHT22;5580;50.106;8.702;2023-02-05T09:28:31;5.80;99.90
11055;DHT22;5580;50.106;8.702;2023-02-05T09:30:57;5.80;99.90
11055;DHT22;5580;50.106;8.702;2023-02-05T09:33:22;5.70;99.90
11055;DHT22;5580;50.106;8.702;2023-02-05T09:35:48;5.80;99.90
11055;DHT22;5580;50.106;8.702;2023-02-05T09:38:14;5.70;99.90
11055;DHT22;5580;50.106;8.702;2023-02-05T09:41:02;5.70;99.90
11055;DHT22;5580;50.106;8.702;2023-02-05T09:43:59;5.80;99.90
11055;DHT22;5580;50.106;8.702;2023-02-05T09:50:08;5.80;99.90
11055;DHT22;5580;50.106;8.702;2023-02-05T09:52:32;5.80;99.90
11055;DHT22;5580;50.106;8.702;2023-02-05T09:55:01;5.80;99.90
11055;DHT22;5580;50.106;8.702;2023-02-05T09:57:34;5.90;99.90
11055;DHT22;5580;50.106;8.702;2023-02-05T10:00:02;5.90;99.90
11055;DHT22;5580;50.106;8.702;2023-02-05T10:02:33;5.90;99.90
11055;DHT22;5580;50.106;8.702;2023-02-05T10:05:01;6.00;99.90
11055;DHT22;5580;50.106;8.702;2023-02-05T10:10:24;6.00;99.90
11055;DHT22;5580;50.106;8.702;2023-02-05T10:26:50;6.00;99.90
11055;DHT22;5580;50.106;8.702;2023-02-05T10:32:38;6.00;99.90
11055;DHT22;5580;50.106;8.702;2023-02-05T10:34:59;6.10;99.90
11055;DHT22;5580;50.106;8.702;2023-02-05T10:37:46;6.10;99.90
11055;DHT22;5580;50.106;8.702;2023-02-05T10:40:18;6.00;99.90
11055;DHT22;5580;50.106;8.702;2023-02-05T10:43:13;6.10;99.90
11055;DHT22;5580;50.106;8.702;2023-02-05T10:45:41;6.10;99.90
11055;DHT22;5580;50.106;8.702;2023-02-05T10:48:30;6.10;99.90
11055;DHT22;5580;50.106;8.702;2023-02-05T10:53:27;6.10;99.90
11055;DHT22;5580;50.106;8.702;2023-02-05T10:55:55;6.10;99.90
11055;DHT22;5580;50.106;8.702;2023-02-05T11:01:17;6.10;99.90
11055;DHT22;5580;50.106;8.702;2023-02-05T11:03:57;6.00;99.90
11055;DHT22;5580;50.106;8.702;2023-02-05T11:06:25;6.00;99.90
11055;DHT22;5580;50.106;8.702;2023-02-05T11:08:51;6.10;99.90
11055;DHT22;5580;50.106;8.702;2023-02-05T11:11:31;6.10;99.90
11055;DHT22;5580;50.106;8.702;2023-02-05T11:13:59;6.10;99.90
11055;DHT22;5580;50.106;8.702;2023-02-05T11:16:41;6.10;99.90
11055;DHT22;5580;50.106;8.702;2023-02-05T11:19:25;6.20;99.90
11055;DHT22;5580;50.106;8.702;2023-02-05T11:22:02;6.20;99.90
11055;DHT22;5580;50.106;8.702;2023-02-05T11:24:36;6.20;99.90
11055;DHT22;5580;50.106;8.702;2023-02-05T11:29:55;6.30;99.90
11055;DHT22;5580;50.106;8.702;2023-02-05T11:32:35;6.30;99.90
11055;DHT22;5580;50.106;8.702;2023-02-05T11:35:25;6.40;99.90
11055;DHT22;5580;50.106;8.702;2023-02-05T11:40:26;6.30;99.90
11055;DHT22;5580;50.106;8.702;2023-02-05T11:43:02;6.30;99.90
11055;DHT22;5580;50.106;8.702;2023-02-05T11:45:30;6.30;99.90
11055;DHT22;5580;50.106;8.702;2023-02-05T11:48:00;6.30;99.90
11055;DHT22;5580;50.106;8.702;2023-02-05T11:50:27;6.40;99.90
11055;DHT22;5580;50.106;8.702;2023-02-05T11:52:55;6.40;99.90
11055;DHT22;5580;50.106;8.702;2023-02-05T11:55:32;6.40;99.90
11055;DHT22;5580;50.106;8.702;2023-02-05T11:58:09;6.40;99.90
11055;DHT22;5580;50.106;8.702;2023-02-05T12:00:50;6.40;99.90
11055;DHT22;5580;50.106;8.702;2023-02-05T12:03:17;6.40;99.90
11055;DHT22;5580;50.106;8.702;2023-02-05T12:06:09;6.50;99.90
11055;DHT22;5580;50.106;8.702;2023-02-05T12:08:48;6.50;99.90
11055;DHT22;5580;50.106;8.702;2023-02-05T12:11:27;6.40;99.90
11055;DHT22;5580;50.106;8.702;2023-02-05T12:15:00;6.40;99.90
11055;DHT22;5580;50.106;8.702;2023-02-05T12:22:15;6.50;99.90
11055;DHT22;5580;50.106;8.702;2023-02-05T12:25:11;6.60;99.90
11055;DHT22;5580;50.106;8.702;2023-02-05T12:47:12;6.60;99.90
11055;DHT22;5580;50.106;8.702;2023-02-05T12:50:29;6.60;99.90
11055;DHT22;5580;50.106;8.702;2023-02-05T12:58:19;6.70;99.90
11055;DHT22;5580;50.106;8.702;2023-02-05T13:00:53;6.70;99.90
11055;DHT22;5580;50.106;8.702;2023-02-05T13:03:21;6.70;99.90
11055;DHT22;5580;50.106;8.702;2023-02-05T13:05:59;6.80;99.90
11055;DHT22;5580;50.106;8.702;2023-02-05T13:08:45;6.90;99.90
11055;DHT22;5580;50.106;8.702;2023-02-05T13:11:16;6.90;99.90
11055;DHT22;5580;50.106;8.702;2023-02-05T13:14:14;6.90;99.90
11055;DHT22;5580;50.106;8.702;2023-02-05T13:17:10;7.00;99.90
11055;DHT22;5580;50.106;8.702;2023-02-05T13:19:39;7.00;99.90
11055;DHT22;5580;50.106;8.702;2023-02-05T13:22:24;6.90;99.90
11055;DHT22;5580;50.106;8.702;2023-02-05T13:25:29;6.90;99.90
11055;DHT22;5580;50.106;8.702;2023-02-05T13:31:09;6.90;99.90
11055;DHT22;5580;50.106;8.702;2023-02-05T13:33:36;6.80;99.90
11055;DHT22;5580;50.106;8.702;2023-02-05T13:46:29;6.60;99.90
11055;DHT22;5580;50.106;8.702;2023-02-05T13:54:33;6.50;99.90
11055;DHT22;5580;50.106;8.702;2023-02-05T13:59:50;6.50;99.90
11055;DHT22;5580;50.106;8.702;2023-02-05T14:05:05;6.50;99.90
11055;DHT22;5580;50.106;8.702;2023-02-05T14:07:47;6.50;99.90
11055;DHT22;5580;50.106;8.702;2023-02-05T14:10:41;6.60;99.90
11055;DHT22;5580;50.106;8.702;2023-02-05T14:13:27;6.60;99.90
11055;DHT22;5580;50.106;8.702;2023-02-05T14:15:57;6.40;99.90
11055;DHT22;5580;50.106;8.702;2023-02-05T14:24:03;6.40;99.90
11055;DHT22;5580;50.106;8.702;2023-02-05T14:26:55;6.40;99.90
11055;DHT22;5580;50.106;8.702;2023-02-05T14:29:41;6.40;99.90
11055;DHT22;5580;50.106;8.702;2023-02-05T14:37:36;6.40;99.90
11055;DHT22;5580;50.106;8.702;2023-02-05T14:40:30;6.40;99.90
11055;DHT22;5580;50.106;8.702;2023-02-05T14:43:13;6.30;99.90
11055;DHT22;5580;50.106;8.702;2023-02-05T14:45:47;6.20;99.90
11055;DHT22;5580;50.106;8.702;2023-02-05T14:48:19;6.20;99.90
11055;DHT22;5580;50.106;8.702;2023-02-05T14:50:46;6.10;99.90
11055;DHT22;5580;50.106;8.702;2023-02-05T14:53:24;6.10;99.90
11055;DHT22;5580;50.106;8.702;2023-02-05T14:55:54;6.10;99.90
11055;DHT22;5580;50.106;8.702;2023-02-05T14:58:32;6.10;99.90
11055;DHT22;5580;50.106;8.702;2023-02-05T15:03:58;6.10;99.90
11055;DHT22;5580;50.106;8.702;2023-02-05T15:06:27;6.10;99.90
11055;DHT22;5580;50.106;8.702;2023-02-05T15:19:50;6.00;99.90
11055;DHT22;5580;50.106;8.702;2023-02-05T15:24:53;6.00;99.90
11055;DHT22;5580;50.106;8.702;2023-02-05T15:27:28;5.90;99.90
11055;DHT22;5580;50.106;8.702;2023-02-05T15:29:55;5.90;99.90
11055;DHT22;5580;50.106;8.702;2023-02-05T15:32:48;5.80;99.90
11055;DHT22;5580;50.106;8.702;2023-02-05T15:35:18;5.90;99.90
11055;DHT22;5580;50.106;8.702;2023-02-05T15:38:24;5.80;99.90
11055;DHT22;5580;50.106;8.702;2023-02-05T15:40:51;5.80;99.90
11055;DHT22;5580;50.106;8.702;2023-02-05T15:43:25;5.80;99.90
11055;DHT22;5580;50.106;8.702;2023-02-05T15:46:03;5.70;99.90
11055;DHT22;5580;50.106;8.702;2023-02-05T15:48:31;5.70;99.90
11055;DHT22;5580;50.106;8.702;2023-02-05T15:51:01;5.70;99.90
11055;DHT22;5580;50.106;8.702;2023-02-05T15:53:36;5.70;99.90
11055;DHT22;5580;50.106;8.702;2023-02-05T15:58:51;5.70;99.90
11055;DHT22;5580;50.106;8.702;2023-02-05T16:01:30;5.60;99.90
11055;DHT22;5580;50.106;8.702;2023-02-05T16:03:56;5.60;99.90
11055;DHT22;5580;50.106;8.702;2023-02-05T16:06:24;5.60;99.90
11055;DHT22;5580;50.106;8.702;2023-02-05T16:08:50;5.70;99.90
11055;DHT22;5580;50.106;8.702;2023-02-05T16:11:33;5.60;99.90
11055;DHT22;5580;50.106;8.702;2023-02-05T16:16:51;5.60;99.90
11055;DHT22;5580;50.106;8.702;2023-02-05T16:19:27;5.60;99.90
11055;DHT22;5580;50.106;8.702;2023-02-05T16:24:42;5.50;99.90
11055;DHT22;5580;50.106;8.702;2023-02-05T16:29:58;5.50;99.90
11055;DHT22;5580;50.106;8.702;2023-02-05T16:32:40;5.50;99.90
11055;DHT22;5580;50.106;8.702;2023-02-05T16:35:27;5.50;99.90
11055;DHT22;5580;50.106;8.702;2023-02-05T16:37:53;5.50;99.90
11055;DHT22;5580;50.106;8.702;2023-02-05T16:40:35;5.60;99.90
11055;DHT22;5580;50.106;8.702;2023-02-05T16:43:29;5.60;99.90
11055;DHT22;5580;50.106;8.702;2023-02-05T16:48:37;5.50;99.90
11055;DHT22;5580;50.106;8.702;2023-02-05T16:51:04;5.50;99.90
11055;DHT22;5580;50.106;8.702;2023-02-05T16:53:35;5.50;99.90
11055;DHT22;5580;50.106;8.702;2023-02-05T16:56:15;5.60;99.90
11055;DHT22;5580;50.106;8.702;2023-02-05T16:58:46;5.60;99.90
11055;DHT22;5580;50.106;8.702;2023-02-05T17:01:13;5.50;99.90
11055;DHT22;5580;50.106;8.702;2023-02-05T17:03:48;5.50;99.90
11055;DHT22;5580;50.106;8.702;2023-02-05T17:06:16;5.50;99.90
11055;DHT22;5580;50.106;8.702;2023-02-05T17:08:49;5.60;99.90
11055;DHT22;5580;50.106;8.702;2023-02-05T17:11:41;5.60;99.90
11055;DHT22;5580;50.106;8.702;2023-02-05T17:14:30;5.60;99.90
11055;DHT22;5580;50.106;8.702;2023-02-05T17:16:59;5.60;99.90
11055;DHT22;5580;50.106;8.702;2023-02-05T17:24:35;5.50;99.90
11055;DHT22;5580;50.106;8.702;2023-02-05T17:27:00;5.50;99.90
11055;DHT22;5580;50.106;8.702;2023-02-05T17:29:26;5.50;99.90
11055;DHT22;5580;50.106;8.702;2023-02-05T17:31:52;5.40;99.90
11055;DHT22;5580;50.106;8.702;2023-02-05T17:34:17;5.40;99.90
11055;DHT22;5580;50.106;8.702;2023-02-05T17:36:43;5.40;99.90
11055;DHT22;5580;50.106;8.702;2023-02-05T17:39:08;5.30;99.90
11055;DHT22;5580;50.106;8.702;2023-02-05T17:41:36;5.40;99.90
11055;DHT22;5580;50.106;8.702;2023-02-05T17:44:20;5.30;99.90
11055;DHT22;5580;50.106;8.702;2023-02-05T17:46:46;5.30;99.90
11055;DHT22;5580;50.106;8.702;2023-02-05T17:49:11;5.30;99.90
11055;DHT22;5580;50.106;8.702;2023-02-05T17:51:37;5.30;99.90
11055;DHT22;5580;50.106;8.702;2023-02-05T17:54:13;5.30;99.90
11055;DHT22;5580;50.106;8.702;2023-02-05T17:56:39;5.30;99.90
11055;DHT22;5580;50.106;8.702;2023-02-05T17:59:10;5.30;99.90
11055;DHT22;5580;50.106;8.702;2023-02-05T18:01:36;5.30;99.90
11055;DHT22;5580;50.106;8.702;2023-02-05T18:04:01;5.30;99.90
11055;DHT22;5580;50.106;8.702;2023-02-05T18:06:27;5.30;99.90
11055;DHT22;5580;50.106;8.702;2023-02-05T18:08:52;5.30;99.90
11055;DHT22;5580;50.106;8.702;2023-02-05T18:11:18;5.40;99.90
11055;DHT22;5580;50.106;8.702;2023-02-05T18:13:44;5.40;99.90
11055;DHT22;5580;50.106;8.702;2023-02-05T18:16:09;5.30;99.90
11055;DHT22;5580;50.106;8.702;2023-02-05T18:18:35;5.40;99.90
11055;DHT22;5580;50.106;8.702;2023-02-05T18:21:03;5.40;99.90
11055;DHT22;5580;50.106;8.702;2023-02-05T18:23:28;5.40;99.90
11055;DHT22;5580;50.106;8.702;2023-02-05T18:25:58;5.50;99.90
11055;DHT22;5580;50.106;8.702;2023-02-05T18:28:24;5.50;99.90
11055;DHT22;5580;50.106;8.702;2023-02-05T18:31:14;5.50;99.90
11055;DHT22;5580;50.106;8.702;2023-02-05T18:33:40;5.40;99.90
11055;DHT22;5580;50.106;8.702;2023-02-05T18:36:12;5.40;99.90
11055;DHT22;5580;50.106;8.702;2023-02-05T18:38:38;5.40;99.90
11055;DHT22;5580;50.106;8.702;2023-02-05T18:41:13;5.40;99.90
11055;DHT22;5580;50.106;8.702;2023-02-05T18:43:39;5.40;99.90
11055;DHT22;5580;50.106;8.702;2023-02-05T18:46:15;5.40;99.90
11055;DHT22;5580;50.106;8.702;2023-02-05T18:48:41;5.40;99.90
11055;DHT22;5580;50.106;8.702;2023-02-05T18:51:12;5.40;99.90
11055;DHT22;5580;50.106;8.702;2023-02-05T18:53:38;5.30;99.90
11055;DHT22;5580;50.106;8.702;2023-02-05T18:56:08;5.40;99.90
11055;DHT22;5580;50.106;8.702;2023-02-05T18:58:34;5.40;99.90
11055;DHT22;5580;50.106;8.702;2023-02-05T19:03:33;5.50;99.90